Back to Top

Language: 

My Weather Underground Personal Weather Station Historical Data with Graphs...

Delerius Weather Station Historical Data
Daily Summary for January 28, 2018 Units:  English    Metric   Both
« Previous Day
Next Day »
Daily Weekly Monthly Yearly Custom
  High: Low: Average:
Temperature: 57.9 °F 46.4 °F 51.9 °F
Dew Point: 52.4 °F 41.7 °F 47.1 °F
Humidity: 93 % 79 % 84 %
Wind Speed: 24.0 mph 3.0 mph 12.2 mph
Wind Gust: 35.0 mph - -
Wind:- - WSW
Pressure: 30.27 in 30.16 in -
Precipitation: 0.00 in    
Historical Graphs
 
 
Tabular Data for January 28, 2018
Time Temperature Dew Point Pressure Wind Wind Speed Wind Gust Humidity Rainfall Rate (Hourly) solar Conditions
00:04 47.8 °F 42.3 °F 30.20 in West 13.0 mph 25.0 mph 81 % 0.00 in 0 W/m2
00:09 47.8 °F 42.3 °F 30.21 in West 11.0 mph 18.0 mph 81 % 0.00 in 0 W/m2
00:14 47.8 °F 42.3 °F 30.21 in West 14.0 mph 22.0 mph 81 % 0.00 in 0 W/m2
00:19 47.8 °F 42.3 °F 30.21 in West 12.0 mph 18.0 mph 81 % 0.00 in 0 W/m2
00:24 47.7 °F 42.1 °F 30.21 in West 13.0 mph 25.0 mph 81 % 0.00 in 0 W/m2
00:29 47.7 °F 42.1 °F 30.21 in West 12.0 mph 19.0 mph 81 % 0.00 in 0 W/m2
00:34 47.5 °F 41.9 °F 30.21 in West 12.0 mph 19.0 mph 81 % 0.00 in 0 W/m2
00:39 47.3 °F 41.8 °F 30.20 in West 13.0 mph 19.0 mph 81 % 0.00 in 0 W/m2
00:44 47.1 °F 41.9 °F 30.20 in West 16.0 mph 23.0 mph 82 % 0.00 in 0 W/m2
00:49 46.9 °F 41.7 °F 30.20 in West 14.0 mph 25.0 mph 82 % 0.00 in 0 W/m2
00:54 46.9 °F 41.7 °F 30.21 in West 15.0 mph 24.0 mph 82 % 0.00 in 0 W/m2
00:59 46.9 °F 42.0 °F 30.22 in West 12.0 mph 18.0 mph 83 % 0.00 in 0 W/m2
01:04 46.8 °F 41.9 °F 30.22 in West 10.0 mph 19.0 mph 83 % 0.00 in 0 W/m2
01:09 46.8 °F 41.9 °F 30.22 in West 11.0 mph 20.0 mph 83 % 0.00 in 0 W/m2
01:14 46.8 °F 41.9 °F 30.22 in West 12.0 mph 16.0 mph 83 % 0.00 in 0 W/m2
01:19 46.8 °F 41.9 °F 30.22 in West 11.0 mph 18.0 mph 83 % 0.00 in 0 W/m2
01:24 46.8 °F 41.9 °F 30.23 in West 12.0 mph 21.0 mph 83 % 0.00 in 0 W/m2
01:29 46.8 °F 42.2 °F 30.23 in West 11.0 mph 16.0 mph 84 % 0.00 in 0 W/m2
01:34 46.6 °F 42.0 °F 30.24 in West 7.0 mph 15.0 mph 84 % 0.00 in 0 W/m2
01:39 46.6 °F 42.0 °F 30.24 in West 10.0 mph 16.0 mph 84 % 0.00 in 0 W/m2
01:44 46.6 °F 42.0 °F 30.23 in West 8.0 mph 15.0 mph 84 % 0.00 in 0 W/m2
01:49 46.8 °F 41.9 °F 30.24 in West 9.0 mph 18.0 mph 83 % 0.00 in 0 W/m2
01:54 46.8 °F 41.9 °F 30.24 in West 9.0 mph 14.0 mph 83 % 0.00 in 0 W/m2
01:59 46.8 °F 41.9 °F 30.24 in West 9.0 mph 14.0 mph 83 % 0.00 in 0 W/m2
02:04 46.8 °F 41.9 °F 30.24 in West 9.0 mph 13.0 mph 83 % 0.00 in 0 W/m2
02:09 46.8 °F 41.9 °F 30.24 in West 10.0 mph 14.0 mph 83 % 0.00 in 0 W/m2
02:14 46.8 °F 41.9 °F 30.24 in West 10.0 mph 19.0 mph 83 % 0.00 in 0 W/m2
02:19 46.8 °F 41.9 °F 30.24 in West 9.0 mph 16.0 mph 83 % 0.00 in 0 W/m2
02:24 46.6 °F 41.7 °F 30.24 in WSW 9.0 mph 14.0 mph 83 % 0.00 in 0 W/m2
02:30 46.6 °F 42.0 °F 30.24 in West 7.0 mph 13.0 mph 84 % 0.00 in 0 W/m2
02:35 46.4 °F 41.8 °F 30.25 in West 8.0 mph 15.0 mph 84 % 0.00 in 0 W/m2
02:40 46.6 °F 42.0 °F 30.25 in West 7.0 mph 11.0 mph 84 % 0.00 in 0 W/m2
02:45 46.6 °F 42.0 °F 30.24 in West 9.0 mph 15.0 mph 84 % 0.00 in 0 W/m2
02:50 46.6 °F 42.0 °F 30.24 in West 9.0 mph 16.0 mph 84 % 0.00 in 0 W/m2
02:55 46.8 °F 42.2 °F 30.24 in WSW 13.0 mph 20.0 mph 84 % 0.00 in 0 W/m2
03:00 46.8 °F 42.2 °F 30.24 in West 11.0 mph 19.0 mph 84 % 0.00 in 0 W/m2
03:05 46.9 °F 42.4 °F 30.24 in West 10.0 mph 16.0 mph 84 % 0.00 in 0 W/m2
03:10 46.9 °F 42.4 °F 30.24 in West 11.0 mph 15.0 mph 84 % 0.00 in 0 W/m2
03:15 46.9 °F 42.4 °F 30.24 in West 12.0 mph 20.0 mph 84 % 0.00 in 0 W/m2
03:20 47.1 °F 42.5 °F 30.24 in WSW 14.0 mph 23.0 mph 84 % 0.00 in 0 W/m2
03:25 47.1 °F 42.5 °F 30.24 in West 11.0 mph 18.0 mph 84 % 0.00 in 0 W/m2
03:30 47.1 °F 42.5 °F 30.24 in West 9.0 mph 14.0 mph 84 % 0.00 in 0 W/m2
03:35 47.1 °F 42.5 °F 30.24 in West 10.0 mph 13.0 mph 84 % 0.00 in 0 W/m2
03:40 47.3 °F 42.7 °F 30.25 in West 9.0 mph 16.0 mph 84 % 0.00 in 0 W/m2
03:45 47.3 °F 42.7 °F 30.24 in West 15.0 mph 23.0 mph 84 % 0.00 in 0 W/m2
03:50 47.5 °F 42.9 °F 30.25 in West 14.0 mph 18.0 mph 84 % 0.00 in 0 W/m2
03:55 47.5 °F 42.9 °F 30.24 in West 11.0 mph 18.0 mph 84 % 0.00 in 0 W/m2
04:00 47.5 °F 42.9 °F 30.24 in West 12.0 mph 20.0 mph 84 % 0.00 in 0 W/m2
04:05 47.3 °F 42.7 °F 30.24 in West 9.0 mph 14.0 mph 84 % 0.00 in 0 W/m2
04:10 47.5 °F 42.9 °F 30.24 in West 10.0 mph 14.0 mph 84 % 0.00 in 0 W/m2
04:15 47.5 °F 43.2 °F 30.24 in West 10.0 mph 16.0 mph 85 % 0.00 in 0 W/m2
04:20 47.7 °F 43.4 °F 30.24 in WSW 12.0 mph 21.0 mph 85 % 0.00 in 0 W/m2
04:25 47.8 °F 43.5 °F 30.24 in WSW 11.0 mph 20.0 mph 85 % 0.00 in 0 W/m2
04:30 47.8 °F 43.5 °F 30.24 in WSW 9.0 mph 15.0 mph 85 % 0.00 in 0 W/m2
04:35 47.8 °F 43.5 °F 30.24 in West 13.0 mph 19.0 mph 85 % 0.00 in 0 W/m2
04:40 48.0 °F 43.4 °F 30.24 in West 12.0 mph 19.0 mph 84 % 0.00 in 0 W/m2
04:45 48.0 °F 43.4 °F 30.24 in WSW 9.0 mph 19.0 mph 84 % 0.00 in 0 W/m2
04:50 48.2 °F 43.3 °F 30.24 in WSW 9.0 mph 14.0 mph 83 % 0.00 in 0 W/m2
04:55 48.4 °F 43.5 °F 30.24 in SW 10.0 mph 15.0 mph 83 % 0.00 in 0 W/m2
05:00 48.4 °F 43.5 °F 30.24 in WSW 6.0 mph 12.0 mph 83 % 0.00 in 0 W/m2
05:05 48.2 °F 43.0 °F 30.23 in SW 8.0 mph 16.0 mph 82 % 0.00 in 0 W/m2
05:10 48.0 °F 42.8 °F 30.23 in SW 10.0 mph 16.0 mph 82 % 0.00 in 0 W/m2
05:16 48.0 °F 42.8 °F 30.23 in SW 10.0 mph 18.0 mph 82 % 0.00 in 0 W/m2
05:21 48.0 °F 42.8 °F 30.23 in SW 10.0 mph 18.0 mph 82 % 0.00 in 0 W/m2
05:26 47.8 °F 42.9 °F 30.23 in SW 11.0 mph 18.0 mph 83 % 0.00 in 0 W/m2
05:31 47.8 °F 42.9 °F 30.22 in SW 10.0 mph 15.0 mph 83 % 0.00 in 0 W/m2
05:36 47.8 °F 43.2 °F 30.22 in SW 10.0 mph 18.0 mph 84 % 0.00 in 0 W/m2
05:41 47.7 °F 43.4 °F 30.23 in SW 9.0 mph 14.0 mph 85 % 0.00 in 0 W/m2
05:46 47.7 °F 43.4 °F 30.23 in SW 8.0 mph 13.0 mph 85 % 0.00 in 0 W/m2
05:51 47.5 °F 43.5 °F 30.23 in SW 8.0 mph 13.0 mph 86 % 0.00 in 0 W/m2
05:56 47.5 °F 43.8 °F 30.23 in SW 10.0 mph 16.0 mph 87 % 0.00 in 0 W/m2
06:01 47.1 °F 43.4 °F 30.23 in SW 11.0 mph 20.0 mph 87 % 0.00 in 0 W/m2
06:06 47.1 °F 43.7 °F 30.23 in SW 9.0 mph 13.0 mph 88 % 0.00 in 0 W/m2
06:11 46.9 °F 43.6 °F 30.23 in SW 8.0 mph 12.0 mph 88 % 0.00 in 0 W/m2
06:16 46.9 °F 43.9 °F 30.23 in SW 11.0 mph 16.0 mph 89 % 0.00 in 0 W/m2
06:21 46.9 °F 43.9 °F 30.22 in SW 12.0 mph 19.0 mph 89 % 0.00 in 0 W/m2
06:26 46.8 °F 44.0 °F 30.22 in SSW 11.0 mph 16.0 mph 90 % 0.00 in 0 W/m2
06:31 46.8 °F 44.0 °F 30.22 in SW 11.0 mph 15.0 mph 90 % 0.00 in 0 W/m2
06:36 46.8 °F 44.0 °F 30.22 in SW 9.0 mph 16.0 mph 90 % 0.00 in 0 W/m2
06:41 46.9 °F 44.4 °F 30.22 in SW 8.0 mph 13.0 mph 91 % 0.00 in 0 W/m2
06:46 47.1 °F 44.6 °F 30.23 in SW 11.0 mph 19.0 mph 91 % 0.00 in 0 W/m2
06:51 47.5 °F 45.0 °F 30.23 in SW 10.0 mph 15.0 mph 91 % 0.00 in 0 W/m2
06:56 47.5 °F 45.0 °F 30.23 in SW 10.0 mph 14.0 mph 91 % 0.00 in 0 W/m2
07:01 47.7 °F 45.2 °F 30.22 in SW 10.0 mph 15.0 mph 91 % 0.00 in 0 W/m2
07:06 47.7 °F 45.5 °F 30.22 in SW 9.0 mph 16.0 mph 92 % 0.00 in 0 W/m2
07:11 47.7 °F 45.5 °F 30.22 in SW 10.0 mph 14.0 mph 92 % 0.00 in 0 W/m2
07:16 47.8 °F 45.9 °F 30.22 in SW 8.0 mph 11.0 mph 93 % 0.00 in 0 W/m2
07:21 48.0 °F 46.1 °F 30.22 in SW 11.0 mph 19.0 mph 93 % 0.00 in 0 W/m2
07:26 48.4 °F 46.4 °F 30.22 in SW 9.0 mph 16.0 mph 93 % 0.00 in 0 W/m2
07:31 48.6 °F 46.6 °F 30.22 in SW 9.0 mph 14.0 mph 93 % 0.00 in 0 W/m2
07:36 48.9 °F 47.0 °F 30.22 in SW 9.0 mph 13.0 mph 93 % 0.00 in 0 W/m2
07:41 49.3 °F 47.3 °F 30.22 in SW 8.0 mph 11.0 mph 93 % 0.00 in 0 W/m2
07:46 49.5 °F 47.5 °F 30.23 in West 6.0 mph 14.0 mph 93 % 0.00 in 0 W/m2
07:51 50.2 °F 48.2 °F 30.23 in WSW 9.0 mph 16.0 mph 93 % 0.00 in 0 W/m2
07:56 50.9 °F 48.9 °F 30.23 in WSW 11.0 mph 16.0 mph 93 % 0.00 in 0 W/m2
08:01 51.6 °F 49.4 °F 30.23 in WSW 14.0 mph 25.0 mph 92 % 0.00 in 0 W/m2
08:06 52.2 °F 49.3 °F 30.23 in WSW 12.0 mph 21.0 mph 90 % 0.00 in 0 W/m2
08:11 52.3 °F 49.2 °F 30.23 in WSW 10.0 mph 20.0 mph 89 % 0.00 in 5 W/m2
08:16 52.9 °F 49.7 °F 30.23 in WSW 16.0 mph 23.0 mph 89 % 0.00 in 7 W/m2
08:22 52.9 °F 49.4 °F 30.23 in WSW 13.0 mph 27.0 mph 88 % 0.00 in 11 W/m2
08:27 53.1 °F 49.6 °F 30.23 in WSW 15.0 mph 24.0 mph 88 % 0.00 in 14 W/m2
08:32 53.1 °F 49.3 °F 30.23 in WSW 12.0 mph 19.0 mph 87 % 0.00 in 14 W/m2
08:37 53.2 °F 49.5 °F 30.23 in WSW 14.0 mph 23.0 mph 87 % 0.00 in 16 W/m2
08:42 53.2 °F 49.5 °F 30.23 in WSW 11.0 mph 19.0 mph 87 % 0.00 in 18 W/m2
08:47 53.2 °F 49.5 °F 30.23 in WSW 14.0 mph 22.0 mph 87 % 0.00 in 19 W/m2
08:52 53.4 °F 49.6 °F 30.22 in SW 18.0 mph 27.0 mph 87 % 0.00 in 23 W/m2
08:57 53.6 °F 49.8 °F 30.22 in WSW 16.0 mph 29.0 mph 87 % 0.00 in 26 W/m2
09:02 53.8 °F 49.7 °F 30.23 in WSW 18.0 mph 31.0 mph 86 % 0.00 in 26 W/m2
09:07 53.8 °F 49.7 °F 30.23 in WSW 16.0 mph 25.0 mph 86 % 0.00 in 28 W/m2
09:12 53.8 °F 49.7 °F 30.23 in SW 12.0 mph 20.0 mph 86 % 0.00 in 32 W/m2
09:17 53.6 °F 49.5 °F 30.23 in WSW 13.0 mph 23.0 mph 86 % 0.00 in 30 W/m2
09:22 53.4 °F 49.3 °F 30.24 in WSW 11.0 mph 20.0 mph 86 % 0.00 in 28 W/m2
09:27 53.6 °F 49.5 °F 30.24 in WSW 13.0 mph 22.0 mph 86 % 0.00 in 32 W/m2
09:32 53.6 °F 49.5 °F 30.24 in WSW 10.0 mph 16.0 mph 86 % 0.00 in 33 W/m2
09:37 53.6 °F 49.5 °F 30.24 in WSW 11.0 mph 18.0 mph 86 % 0.00 in 44 W/m2
09:42 53.8 °F 49.7 °F 30.24 in WSW 11.0 mph 18.0 mph 86 % 0.00 in 54 W/m2
09:47 54.1 °F 49.7 °F 30.24 in WSW 12.0 mph 20.0 mph 85 % 0.00 in 58 W/m2
09:52 54.3 °F 49.9 °F 30.24 in WSW 18.0 mph 31.0 mph 85 % 0.00 in 60 W/m2
09:57 54.7 °F 49.9 °F 30.25 in WSW 18.0 mph 29.0 mph 84 % 0.00 in 70 W/m2
10:02 54.7 °F 49.9 °F 30.25 in WSW 13.0 mph 20.0 mph 84 % 0.00 in 76 W/m2
10:07 54.9 °F 50.1 °F 30.25 in WSW 13.0 mph 21.0 mph 84 % 0.00 in 156 W/m2
10:12 55.0 °F 50.0 °F 30.25 in West 20.0 mph 29.0 mph 83 % 0.00 in 130 W/m2
10:17 55.2 °F 50.1 °F 30.25 in WSW 15.0 mph 26.0 mph 83 % 0.00 in 105 W/m2
10:22 55.4 °F 50.0 °F 30.26 in WSW 18.0 mph 28.0 mph 82 % 0.00 in 63 W/m2
10:27 55.2 °F 50.1 °F 30.26 in WSW 14.0 mph 26.0 mph 83 % 0.00 in 72 W/m2
10:32 55.0 °F 50.0 °F 30.26 in WSW 20.0 mph 27.0 mph 83 % 0.00 in 63 W/m2
10:37 55.0 °F 50.0 °F 30.26 in WSW 17.0 mph 29.0 mph 83 % 0.00 in 93 W/m2
10:42 55.0 °F 50.0 °F 30.26 in WSW 17.0 mph 27.0 mph 83 % 0.00 in 90 W/m2
10:47 55.0 °F 50.0 °F 30.26 in West 16.0 mph 24.0 mph 83 % 0.00 in 167 W/m2
10:52 55.2 °F 50.1 °F 30.26 in WSW 17.0 mph 31.0 mph 83 % 0.00 in 130 W/m2
10:57 55.2 °F 49.8 °F 30.26 in WSW 15.0 mph 27.0 mph 82 % 0.00 in 72 W/m2
11:02 55.2 °F 50.1 °F 30.26 in WSW 16.0 mph 27.0 mph 83 % 0.00 in 272 W/m2
11:07 55.6 °F 50.5 °F 30.26 in WSW 15.0 mph 25.0 mph 83 % 0.00 in 292 W/m2
11:13 55.8 °F 50.3 °F 30.26 in WSW 15.0 mph 28.0 mph 82 % 0.00 in 220 W/m2
11:18 55.8 °F 50.3 °F 30.26 in WSW 16.0 mph 24.0 mph 82 % 0.00 in 325 W/m2
11:23 55.8 °F 50.3 °F 30.26 in WSW 18.0 mph 27.0 mph 82 % 0.00 in 139 W/m2
11:27 55.8 °F 50.3 °F 30.26 in WSW 13.0 mph 23.0 mph 82 % 0.00 in 241 W/m2
11:32 55.9 °F 50.5 °F 30.26 in WSW 16.0 mph 25.0 mph 82 % 0.00 in 216 W/m2
11:37 56.3 °F 50.9 °F 30.26 in WSW 15.0 mph 26.0 mph 82 % 0.00 in 178 W/m2
11:43 56.5 °F 50.7 °F 30.26 in West 20.0 mph 29.0 mph 81 % 0.00 in 192 W/m2
11:48 56.8 °F 51.1 °F 30.26 in WSW 15.0 mph 23.0 mph 81 % 0.00 in 387 W/m2
11:53 57.2 °F 51.1 °F 30.27 in WSW 14.0 mph 20.0 mph 80 % 0.00 in 497 W/m2
11:58 57.6 °F 51.4 °F 30.27 in West 18.0 mph 30.0 mph 80 % 0.00 in 334 W/m2
12:03 57.7 °F 51.3 °F 30.27 in WSW 19.0 mph 29.0 mph 79 % 0.00 in 287 W/m2
12:08 57.7 °F 51.6 °F 30.26 in WSW 16.0 mph 28.0 mph 80 % 0.00 in 408 W/m2
12:13 57.7 °F 51.3 °F 30.26 in WSW 19.0 mph 31.0 mph 79 % 0.00 in 172 W/m2
12:18 57.4 °F 51.3 °F 30.26 in WSW 14.0 mph 21.0 mph 80 % 0.00 in 294 W/m2
12:23 57.6 °F 51.8 °F 30.26 in West 15.0 mph 26.0 mph 81 % 0.00 in 394 W/m2
12:28 57.9 °F 52.1 °F 30.26 in WSW 14.0 mph 25.0 mph 81 % 0.00 in 538 W/m2
12:33 57.9 °F 51.8 °F 30.27 in West 15.0 mph 26.0 mph 80 % 0.00 in 446 W/m2
12:38 57.9 °F 52.1 °F 30.27 in West 16.0 mph 26.0 mph 81 % 0.00 in 357 W/m2
12:43 57.6 °F 52.1 °F 30.27 in WSW 16.0 mph 25.0 mph 82 % 0.00 in 360 W/m2
12:48 57.4 °F 51.9 °F 30.27 in WSW 13.0 mph 25.0 mph 82 % 0.00 in 265 W/m2
12:53 57.0 °F 52.2 °F 30.27 in WSW 13.0 mph 22.0 mph 84 % 0.00 in 366 W/m2
12:58 56.7 °F 51.9 °F 30.27 in West 15.0 mph 21.0 mph 84 % 0.00 in 209 W/m2
13:03 56.5 °F 52.0 °F 30.27 in WSW 13.0 mph 20.0 mph 85 % 0.00 in 200 W/m2
13:08 56.1 °F 52.0 °F 30.27 in WSW 17.0 mph 26.0 mph 86 % 0.00 in 121 W/m2
13:13 55.9 °F 52.1 °F 30.27 in WSW 15.0 mph 21.0 mph 87 % 0.00 in 246 W/m2
13:18 55.8 °F 51.9 °F 30.27 in WSW 14.0 mph 24.0 mph 87 % 0.00 in 281 W/m2
13:23 55.9 °F 52.4 °F 30.27 in West 13.0 mph 21.0 mph 88 % 0.00 in 200 W/m2
13:28 55.8 °F 51.9 °F 30.27 in WSW 9.0 mph 15.0 mph 87 % 0.00 in 134 W/m2
13:33 55.8 °F 51.9 °F 30.27 in WSW 12.0 mph 19.0 mph 87 % 0.00 in 90 W/m2
13:38 55.6 °F 51.8 °F 30.27 in WSW 14.0 mph 26.0 mph 87 % 0.00 in 76 W/m2
13:43 55.6 °F 51.8 °F 30.27 in WSW 15.0 mph 25.0 mph 87 % 0.00 in 91 W/m2
13:48 55.6 °F 51.8 °F 30.27 in WSW 14.0 mph 21.0 mph 87 % 0.00 in 79 W/m2
13:53 55.6 °F 51.8 °F 30.26 in WSW 12.0 mph 22.0 mph 87 % 0.00 in 102 W/m2
13:58 55.8 °F 51.6 °F 30.27 in WSW 14.0 mph 21.0 mph 86 % 0.00 in 116 W/m2
14:03 55.8 °F 51.9 °F 30.27 in West 17.0 mph 24.0 mph 87 % 0.00 in 123 W/m2
14:08 55.8 °F 51.9 °F 30.26 in WSW 12.0 mph 19.0 mph 87 % 0.00 in 144 W/m2
14:13 55.8 °F 51.9 °F 30.26 in WSW 12.0 mph 20.0 mph 87 % 0.00 in 135 W/m2
14:18 55.9 °F 51.8 °F 30.26 in WSW 12.0 mph 18.0 mph 86 % 0.00 in 139 W/m2
14:23 55.9 °F 51.8 °F 30.26 in WSW 11.0 mph 18.0 mph 86 % 0.00 in 111 W/m2
14:29 55.8 °F 51.6 °F 30.27 in WSW 13.0 mph 22.0 mph 86 % 0.00 in 95 W/m2
14:34 55.8 °F 51.9 °F 30.26 in West 13.0 mph 19.0 mph 87 % 0.00 in 54 W/m2
14:39 55.6 °F 51.8 °F 30.27 in WSW 11.0 mph 20.0 mph 87 % 0.00 in 46 W/m2
14:44 55.8 °F 51.6 °F 30.27 in West 16.0 mph 26.0 mph 86 % 0.00 in 58 W/m2
14:49 55.9 °F 51.5 °F 30.26 in West 13.0 mph 22.0 mph 85 % 0.00 in 53 W/m2
14:54 55.9 °F 51.2 °F 30.27 in West 14.0 mph 25.0 mph 84 % 0.00 in 47 W/m2
14:59 56.1 °F 51.4 °F 30.26 in West 13.0 mph 18.0 mph 84 % 0.00 in 32 W/m2
15:04 56.1 °F 51.4 °F 30.26 in WSW 13.0 mph 20.0 mph 84 % 0.00 in 54 W/m2
15:09 56.1 °F 51.4 °F 30.26 in WSW 14.0 mph 22.0 mph 84 % 0.00 in 35 W/m2
15:14 56.1 °F 51.4 °F 30.27 in WSW 10.0 mph 18.0 mph 84 % 0.00 in 23 W/m2
15:19 55.9 °F 51.2 °F 30.27 in WSW 8.0 mph 16.0 mph 84 % 0.00 in 25 W/m2
15:24 55.9 °F 51.2 °F 30.27 in WSW 8.0 mph 15.0 mph 84 % 0.00 in 30 W/m2
15:29 55.8 °F 51.0 °F 30.27 in WSW 13.0 mph 21.0 mph 84 % 0.00 in 30 W/m2
15:34 55.8 °F 50.7 °F 30.27 in WSW 10.0 mph 16.0 mph 83 % 0.00 in 32 W/m2
15:39 55.9 °F 50.9 °F 30.27 in WSW 7.0 mph 12.0 mph 83 % 0.00 in 33 W/m2
15:44 55.8 °F 50.7 °F 30.27 in WSW 10.0 mph 19.0 mph 83 % 0.00 in 35 W/m2
15:49 55.6 °F 50.5 °F 30.27 in WSW 11.0 mph 16.0 mph 83 % 0.00 in 19 W/m2
15:54 55.4 °F 50.6 °F 30.27 in West 9.0 mph 14.0 mph 84 % 0.00 in 14 W/m2
15:59 55.2 °F 50.5 °F 30.27 in West 11.0 mph 18.0 mph 84 % 0.00 in 14 W/m2
16:04 55.0 °F 50.3 °F 30.27 in West 10.0 mph 18.0 mph 84 % 0.00 in 18 W/m2
16:09 55.0 °F 50.3 °F 30.27 in West 12.0 mph 19.0 mph 84 % 0.00 in 30 W/m2
16:14 55.0 °F 50.3 °F 30.27 in WSW 10.0 mph 20.0 mph 84 % 0.00 in 18 W/m2
16:19 54.9 °F 50.1 °F 30.27 in West 14.0 mph 23.0 mph 84 % 0.00 in 7 W/m2
16:24 54.7 °F 49.9 °F 30.27 in West 16.0 mph 24.0 mph 84 % 0.00 in 5 W/m2
16:29 54.7 °F 49.9 °F 30.27 in West 12.0 mph 21.0 mph 84 % 0.00 in 0 W/m2
16:34 54.7 °F 49.9 °F 30.27 in West 12.0 mph 20.0 mph 84 % 0.00 in 0 W/m2
16:39 54.7 °F 49.9 °F 30.27 in West 14.0 mph 23.0 mph 84 % 0.00 in 0 W/m2
16:44 54.5 °F 49.8 °F 30.27 in West 11.0 mph 22.0 mph 84 % 0.00 in 0 W/m2
16:49 54.3 °F 49.6 °F 30.27 in West 12.0 mph 20.0 mph 84 % 0.00 in 0 W/m2
16:54 54.3 °F 49.6 °F 30.27 in West 10.0 mph 20.0 mph 84 % 0.00 in 0 W/m2
16:59 54.3 °F 49.6 °F 30.27 in West 7.0 mph 11.0 mph 84 % 0.00 in 0 W/m2
17:04 54.1 °F 49.4 °F 30.27 in West 8.0 mph 13.0 mph 84 % 0.00 in 0 W/m2
17:09 54.1 °F 49.1 °F 30.26 in West 11.0 mph 22.0 mph 83 % 0.00 in 0 W/m2
17:14 54.3 °F 49.3 °F 30.26 in West 11.0 mph 18.0 mph 83 % 0.00 in 0 W/m2
17:19 54.1 °F 49.1 °F 30.26 in West 9.0 mph 16.0 mph 83 % 0.00 in 0 W/m2
17:24 54.3 °F 49.3 °F 30.26 in West 11.0 mph 18.0 mph 83 % 0.00 in 0 W/m2
17:29 54.3 °F 49.3 °F 30.26 in West 10.0 mph 15.0 mph 83 % 0.00 in 0 W/m2
17:34 54.3 °F 48.9 °F 30.26 in WSW 10.0 mph 15.0 mph 82 % 0.00 in 0 W/m2
17:39 54.3 °F 48.9 °F 30.26 in WSW 9.0 mph 16.0 mph 82 % 0.00 in 0 W/m2
17:44 54.1 °F 48.8 °F 30.26 in West 6.0 mph 9.0 mph 82 % 0.00 in 0 W/m2
17:49 54.1 °F 48.8 °F 30.26 in WSW 9.0 mph 18.0 mph 82 % 0.00 in 0 W/m2
17:55 54.1 °F 48.8 °F 30.26 in West 8.0 mph 15.0 mph 82 % 0.00 in 0 W/m2
18:00 54.1 °F 48.8 °F 30.26 in West 8.0 mph 14.0 mph 82 % 0.00 in 0 W/m2
18:05 54.0 °F 48.6 °F 30.26 in West 8.0 mph 12.0 mph 82 % 0.00 in 0 W/m2
18:10 54.0 °F 48.6 °F 30.26 in WSW 11.0 mph 20.0 mph 82 % 0.00 in 0 W/m2
18:15 54.0 °F 48.6 °F 30.26 in West 10.0 mph 16.0 mph 82 % 0.00 in 0 W/m2
18:20 54.0 °F 48.6 °F 30.26 in West 8.0 mph 12.0 mph 82 % 0.00 in 0 W/m2
18:25 53.8 °F 48.4 °F 30.26 in West 11.0 mph 20.0 mph 82 % 0.00 in 0 W/m2
18:30 53.8 °F 48.4 °F 30.25 in WSW 9.0 mph 14.0 mph 82 % 0.00 in 0 W/m2
18:35 53.8 °F 48.4 °F 30.26 in West 7.0 mph 10.0 mph 82 % 0.00 in 0 W/m2
18:40 53.6 °F 48.2 °F 30.25 in WSW 8.0 mph 13.0 mph 82 % 0.00 in 0 W/m2
18:45 53.4 °F 48.4 °F 30.25 in WSW 6.0 mph 10.0 mph 83 % 0.00 in 0 W/m2
18:50 53.4 °F 48.4 °F 30.25 in WSW 4.0 mph 10.0 mph 83 % 0.00 in 0 W/m2
18:55 53.4 °F 48.4 °F 30.25 in SW 3.0 mph 10.0 mph 83 % 0.00 in 0 W/m2
19:00 53.2 °F 47.9 °F 30.26 in WSW 9.0 mph 13.0 mph 82 % 0.00 in 0 W/m2
19:05 53.2 °F 47.9 °F 30.26 in WSW 9.0 mph 15.0 mph 82 % 0.00 in 0 W/m2
19:10 53.2 °F 47.9 °F 30.25 in WSW 7.0 mph 13.0 mph 82 % 0.00 in 0 W/m2
19:15 53.1 °F 47.7 °F 30.25 in West 7.0 mph 18.0 mph 82 % 0.00 in 0 W/m2
19:20 53.1 °F 47.7 °F 30.25 in West 11.0 mph 21.0 mph 82 % 0.00 in 0 W/m2
19:25 53.1 °F 47.7 °F 30.25 in WSW 13.0 mph 23.0 mph 82 % 0.00 in 0 W/m2
19:30 52.9 °F 47.5 °F 30.25 in WSW 15.0 mph 25.0 mph 82 % 0.00 in 0 W/m2
19:35 52.9 °F 47.5 °F 30.25 in WSW 10.0 mph 16.0 mph 82 % 0.00 in 0 W/m2
19:40 52.9 °F 47.2 °F 30.25 in WSW 9.0 mph 18.0 mph 81 % 0.00 in 0 W/m2
19:45 52.9 °F 47.2 °F 30.26 in WSW 11.0 mph 18.0 mph 81 % 0.00 in 0 W/m2
19:50 52.7 °F 47.0 °F 30.26 in WSW 10.0 mph 14.0 mph 81 % 0.00 in 0 W/m2
19:55 52.7 °F 47.0 °F 30.25 in WSW 8.0 mph 11.0 mph 81 % 0.00 in 0 W/m2
20:00 52.7 °F 47.0 °F 30.25 in WSW 8.0 mph 12.0 mph 81 % 0.00 in 0 W/m2
20:05 52.5 °F 46.9 °F 30.25 in WSW 8.0 mph 12.0 mph 81 % 0.00 in 0 W/m2
20:10 52.5 °F 46.9 °F 30.25 in WSW 10.0 mph 16.0 mph 81 % 0.00 in 0 W/m2
20:15 52.5 °F 46.9 °F 30.24 in WSW 10.0 mph 20.0 mph 81 % 0.00 in 0 W/m2
20:20 52.5 °F 46.9 °F 30.25 in West 13.0 mph 21.0 mph 81 % 0.00 in 0 W/m2
20:25 52.5 °F 46.9 °F 30.24 in West 9.0 mph 14.0 mph 81 % 0.00 in 0 W/m2
20:30 52.5 °F 46.5 °F 30.24 in WSW 6.0 mph 10.0 mph 80 % 0.00 in 0 W/m2
20:35 52.5 °F 46.5 °F 30.23 in SW 12.0 mph 19.0 mph 80 % 0.00 in 0 W/m2
20:40 52.3 °F 46.7 °F 30.24 in WSW 8.0 mph 16.0 mph 81 % 0.00 in 0 W/m2
20:45 52.3 °F 46.4 °F 30.23 in WSW 9.0 mph 13.0 mph 80 % 0.00 in 0 W/m2
20:51 52.3 °F 46.7 °F 30.23 in WSW 11.0 mph 19.0 mph 81 % 0.00 in 0 W/m2
20:56 52.3 °F 46.7 °F 30.23 in WSW 10.0 mph 19.0 mph 81 % 0.00 in 0 W/m2
21:01 52.3 °F 46.7 °F 30.23 in WSW 10.0 mph 19.0 mph 81 % 0.00 in 0 W/m2
21:06 52.3 °F 46.7 °F 30.23 in WSW 9.0 mph 13.0 mph 81 % 0.00 in 0 W/m2
21:11 52.3 °F 46.7 °F 30.23 in WSW 17.0 mph 28.0 mph 81 % 0.00 in 0 W/m2
21:16 52.3 °F 46.7 °F 30.23 in West 12.0 mph 18.0 mph 81 % 0.00 in 0 W/m2
21:21 52.2 °F 46.5 °F 30.23 in West 12.0 mph 22.0 mph 81 % 0.00 in 0 W/m2
21:26 52.2 °F 46.5 °F 30.22 in West 12.0 mph 27.0 mph 81 % 0.00 in 0 W/m2
21:31 52.2 °F 46.5 °F 30.22 in WSW 15.0 mph 26.0 mph 81 % 0.00 in 0 W/m2
21:36 52.0 °F 46.3 °F 30.22 in West 11.0 mph 19.0 mph 81 % 0.00 in 0 W/m2
21:41 52.0 °F 46.3 °F 30.22 in WSW 14.0 mph 22.0 mph 81 % 0.00 in 0 W/m2
21:46 52.0 °F 46.3 °F 30.21 in WSW 16.0 mph 25.0 mph 81 % 0.00 in 0 W/m2
21:51 51.6 °F 45.7 °F 30.20 in WSW 18.0 mph 31.0 mph 80 % 0.00 in 0 W/m2
21:56 51.6 °F 46.0 °F 30.20 in West 14.0 mph 23.0 mph 81 % 0.00 in 0 W/m2
22:01 51.4 °F 45.8 °F 30.20 in WSW 17.0 mph 29.0 mph 81 % 0.00 in 0 W/m2
22:06 51.4 °F 45.8 °F 30.20 in West 19.0 mph 33.0 mph 81 % 0.00 in 0 W/m2
22:11 51.3 °F 45.3 °F 30.20 in WSW 19.0 mph 29.0 mph 80 % 0.00 in 0 W/m2
22:16 51.3 °F 45.3 °F 30.20 in WSW 16.0 mph 28.0 mph 80 % 0.00 in 0 W/m2
22:21 51.3 °F 45.3 °F 30.19 in WSW 16.0 mph 23.0 mph 80 % 0.00 in 0 W/m2
22:27 51.1 °F 45.1 °F 30.19 in West 15.0 mph 24.0 mph 80 % 0.00 in 0 W/m2
22:32 51.1 °F 45.1 °F 30.19 in West 17.0 mph 31.0 mph 80 % 0.00 in 0 W/m2
22:37 51.1 °F 45.1 °F 30.19 in West 18.0 mph 26.0 mph 80 % 0.00 in 0 W/m2
22:42 51.1 °F 45.1 °F 30.18 in WSW 22.0 mph 34.0 mph 80 % 0.00 in 0 W/m2
22:47 51.1 °F 45.1 °F 30.18 in WSW 17.0 mph 24.0 mph 80 % 0.00 in 0 W/m2
22:52 50.9 °F 44.9 °F 30.18 in West 19.0 mph 27.0 mph 80 % 0.00 in 0 W/m2
22:57 50.7 °F 44.8 °F 30.18 in West 18.0 mph 30.0 mph 80 % 0.00 in 0 W/m2
23:02 50.7 °F 44.8 °F 30.18 in West 20.0 mph 33.0 mph 80 % 0.00 in 0 W/m2
23:07 50.7 °F 44.8 °F 30.18 in WSW 21.0 mph 34.0 mph 80 % 0.00 in 0 W/m2
23:12 50.7 °F 44.8 °F 30.18 in West 17.0 mph 25.0 mph 80 % 0.00 in 0 W/m2
23:17 50.7 °F 44.8 °F 30.18 in West 18.0 mph 27.0 mph 80 % 0.00 in 0 W/m2
23:22 50.7 °F 44.8 °F 30.17 in WSW 17.0 mph 30.0 mph 80 % 0.00 in 0 W/m2
23:27 50.9 °F 44.9 °F 30.17 in West 18.0 mph 34.0 mph 80 % 0.00 in 0 W/m2
23:32 50.9 °F 44.9 °F 30.17 in WSW 19.0 mph 33.0 mph 80 % 0.00 in 0 W/m2
23:37 50.7 °F 44.8 °F 30.17 in WSW 16.0 mph 26.0 mph 80 % 0.00 in 0 W/m2
23:42 50.7 °F 44.8 °F 30.16 in WSW 17.0 mph 30.0 mph 80 % 0.00 in 0 W/m2
23:47 50.9 °F 44.9 °F 30.16 in WSW 21.0 mph 35.0 mph 80 % 0.00 in 0 W/m2
23:52 50.9 °F 44.9 °F 30.16 in West 24.0 mph 35.0 mph 80 % 0.00 in 0 W/m2
23:57 51.1 °F 45.1 °F 30.16 in West 20.0 mph 34.0 mph 80 % 0.00 in 0 W/m2
Delerius-Weather
Compliments of Weather Underground - 2.25 mb

Data updates at regular intervals.